sensor_id;sensor_type;location;lat;lon;timestamp;P1;durP1;ratioP1;P2;durP2;ratioP2
17259;SDS011;8746;49.230;9.220;2023-03-26T00:02:03;1.67;;;1.30;;
17259;SDS011;8746;49.230;9.220;2023-03-26T00:04:29;1.87;;;1.10;;
17259;SDS011;8746;49.230;9.220;2023-03-26T00:06:57;4.00;;;1.10;;
17259;SDS011;8746;49.230;9.220;2023-03-26T00:09:22;5.70;;;1.10;;
17259;SDS011;8746;49.230;9.220;2023-03-26T00:11:48;3.13;;;1.30;;
17259;SDS011;8746;49.230;9.220;2023-03-26T00:14:13;5.50;;;1.40;;
17259;SDS011;8746;49.230;9.220;2023-03-26T00:16:41;5.07;;;1.57;;
17259;SDS011;8746;49.230;9.220;2023-03-26T00:19:07;3.70;;;1.60;;
17259;SDS011;8746;49.230;9.220;2023-03-26T00:21:33;4.27;;;1.50;;
17259;SDS011;8746;49.230;9.220;2023-03-26T00:23:59;2.77;;;1.60;;
17259;SDS011;8746;49.230;9.220;2023-03-26T00:26:28;3.17;;;1.37;;
17259;SDS011;8746;49.230;9.220;2023-03-26T00:28:55;3.00;;;1.50;;
17259;SDS011;8746;49.230;9.220;2023-03-26T00:31:21;2.20;;;1.40;;
17259;SDS011;8746;49.230;9.220;2023-03-26T00:33:47;3.33;;;1.50;;
17259;SDS011;8746;49.230;9.220;2023-03-26T00:36:18;4.83;;;1.60;;
17259;SDS011;8746;49.230;9.220;2023-03-26T00:38:43;2.70;;;1.50;;
17259;SDS011;8746;49.230;9.220;2023-03-26T00:41:11;4.03;;;1.40;;
17259;SDS011;8746;49.230;9.220;2023-03-26T00:43:49;2.23;;;1.30;;
17259;SDS011;8746;49.230;9.220;2023-03-26T00:46:17;2.13;;;1.40;;
17259;SDS011;8746;49.230;9.220;2023-03-26T00:48:44;1.40;;;1.30;;
17259;SDS011;8746;49.230;9.220;2023-03-26T00:51:10;2.70;;;1.30;;
17259;SDS011;8746;49.230;9.220;2023-03-26T00:53:39;2.93;;;1.20;;
17259;SDS011;8746;49.230;9.220;2023-03-26T00:56:05;2.53;;;1.60;;
17259;SDS011;8746;49.230;9.220;2023-03-26T00:58:31;7.87;;;1.80;;
17259;SDS011;8746;49.230;9.220;2023-03-26T01:00:59;3.63;;;1.57;;
17259;SDS011;8746;49.230;9.220;2023-03-26T01:03:30;2.47;;;1.60;;
17259;SDS011;8746;49.230;9.220;2023-03-26T01:06:04;2.50;;;1.53;;
17259;SDS011;8746;49.230;9.220;2023-03-26T01:08:45;4.07;;;1.47;;
17259;SDS011;8746;49.230;9.220;2023-03-26T01:11:18;2.43;;;1.33;;
17259;SDS011;8746;49.230;9.220;2023-03-26T01:14:28;5.77;;;1.73;;
17259;SDS011;8746;49.230;9.220;2023-03-26T01:19:28;5.03;;;1.40;;
17259;SDS011;8746;49.230;9.220;2023-03-26T01:22:02;5.50;;;1.67;;
17259;SDS011;8746;49.230;9.220;2023-03-26T01:24:29;4.30;;;1.53;;
17259;SDS011;8746;49.230;9.220;2023-03-26T01:35:08;4.37;;;1.50;;
17259;SDS011;8746;49.230;9.220;2023-03-26T01:43:23;4.73;;;1.63;;
17259;SDS011;8746;49.230;9.220;2023-03-26T01:45:52;4.00;;;1.50;;
17259;SDS011;8746;49.230;9.220;2023-03-26T01:48:18;3.33;;;1.53;;
17259;SDS011;8746;49.230;9.220;2023-03-26T01:50:44;4.13;;;1.57;;
17259;SDS011;8746;49.230;9.220;2023-03-26T01:53:10;3.90;;;1.87;;
17259;SDS011;8746;49.230;9.220;2023-03-26T01:58:57;4.07;;;1.50;;
17259;SDS011;8746;49.230;9.220;2023-03-26T02:01:28;2.77;;;1.70;;
17259;SDS011;8746;49.230;9.220;2023-03-26T02:06:32;2.87;;;1.37;;
17259;SDS011;8746;49.230;9.220;2023-03-26T02:09:09;4.00;;;1.70;;
17259;SDS011;8746;49.230;9.220;2023-03-26T02:11:40;4.23;;;1.53;;
17259;SDS011;8746;49.230;9.220;2023-03-26T02:14:08;3.97;;;1.80;;
17259;SDS011;8746;49.230;9.220;2023-03-26T02:16:34;6.00;;;2.10;;
17259;SDS011;8746;49.230;9.220;2023-03-26T02:19:00;3.87;;;1.73;;
17259;SDS011;8746;49.230;9.220;2023-03-26T02:21:25;4.77;;;1.80;;
17259;SDS011;8746;49.230;9.220;2023-03-26T02:23:53;4.50;;;2.10;;
17259;SDS011;8746;49.230;9.220;2023-03-26T02:26:28;2.37;;;2.00;;
17259;SDS011;8746;49.230;9.220;2023-03-26T02:28:55;3.13;;;2.10;;
17259;SDS011;8746;49.230;9.220;2023-03-26T02:31:21;5.33;;;1.80;;
17259;SDS011;8746;49.230;9.220;2023-03-26T02:33:46;5.53;;;2.00;;
17259;SDS011;8746;49.230;9.220;2023-03-26T02:36:13;7.00;;;2.00;;
17259;SDS011;8746;49.230;9.220;2023-03-26T02:38:41;4.70;;;2.23;;
17259;SDS011;8746;49.230;9.220;2023-03-26T02:41:07;3.40;;;2.07;;
17259;SDS011;8746;49.230;9.220;2023-03-26T02:43:32;3.30;;;2.00;;
17259;SDS011;8746;49.230;9.220;2023-03-26T02:45:58;5.37;;;2.70;;
17259;SDS011;8746;49.230;9.220;2023-03-26T02:48:23;2.93;;;1.67;;
17259;SDS011;8746;49.230;9.220;2023-03-26T02:50:48;3.37;;;1.70;;
17259;SDS011;8746;49.230;9.220;2023-03-26T02:53:18;3.57;;;1.87;;
17259;SDS011;8746;49.230;9.220;2023-03-26T02:55:45;4.80;;;2.00;;
17259;SDS011;8746;49.230;9.220;2023-03-26T02:58:11;3.77;;;1.80;;
17259;SDS011;8746;49.230;9.220;2023-03-26T03:00:41;5.80;;;2.10;;
17259;SDS011;8746;49.230;9.220;2023-03-26T03:03:11;3.47;;;2.10;;
17259;SDS011;8746;49.230;9.220;2023-03-26T03:05:37;4.00;;;2.00;;
17259;SDS011;8746;49.230;9.220;2023-03-26T03:08:03;4.03;;;2.00;;
17259;SDS011;8746;49.230;9.220;2023-03-26T03:10:30;3.50;;;2.10;;
17259;SDS011;8746;49.230;9.220;2023-03-26T03:12:57;3.00;;;1.70;;
17259;SDS011;8746;49.230;9.220;2023-03-26T03:15:23;2.10;;;1.90;;
17259;SDS011;8746;49.230;9.220;2023-03-26T03:17:49;3.97;;;1.90;;
17259;SDS011;8746;49.230;9.220;2023-03-26T03:20:14;3.50;;;1.70;;
17259;SDS011;8746;49.230;9.220;2023-03-26T03:22:40;2.63;;;2.10;;
17259;SDS011;8746;49.230;9.220;2023-03-26T03:25:06;3.07;;;1.83;;
17259;SDS011;8746;49.230;9.220;2023-03-26T03:27:41;3.17;;;1.97;;
17259;SDS011;8746;49.230;9.220;2023-03-26T03:30:07;4.07;;;2.10;;
17259;SDS011;8746;49.230;9.220;2023-03-26T03:32:35;3.60;;;2.20;;
17259;SDS011;8746;49.230;9.220;2023-03-26T03:35:00;3.63;;;2.00;;
17259;SDS011;8746;49.230;9.220;2023-03-26T03:37:25;3.60;;;1.97;;
17259;SDS011;8746;49.230;9.220;2023-03-26T03:39:51;2.67;;;1.60;;
17259;SDS011;8746;49.230;9.220;2023-03-26T03:42:16;3.00;;;1.80;;
17259;SDS011;8746;49.230;9.220;2023-03-26T03:44:42;4.93;;;1.87;;
17259;SDS011;8746;49.230;9.220;2023-03-26T03:47:07;2.80;;;2.27;;
17259;SDS011;8746;49.230;9.220;2023-03-26T03:49:34;3.40;;;2.33;;
17259;SDS011;8746;49.230;9.220;2023-03-26T03:52:00;5.97;;;3.17;;
17259;SDS011;8746;49.230;9.220;2023-03-26T03:54:25;6.70;;;2.90;;
17259;SDS011;8746;49.230;9.220;2023-03-26T03:56:52;4.43;;;3.00;;
17259;SDS011;8746;49.230;9.220;2023-03-26T03:59:17;5.53;;;2.20;;
17259;SDS011;8746;49.230;9.220;2023-03-26T04:01:43;3.63;;;2.27;;
17259;SDS011;8746;49.230;9.220;2023-03-26T04:04:10;3.20;;;2.10;;
17259;SDS011;8746;49.230;9.220;2023-03-26T04:06:36;3.40;;;2.20;;
17259;SDS011;8746;49.230;9.220;2023-03-26T04:09:02;2.67;;;2.00;;
17259;SDS011;8746;49.230;9.220;2023-03-26T04:11:28;4.43;;;2.30;;
17259;SDS011;8746;49.230;9.220;2023-03-26T04:13:54;4.37;;;2.20;;
17259;SDS011;8746;49.230;9.220;2023-03-26T04:16:19;6.17;;;1.80;;
17259;SDS011;8746;49.230;9.220;2023-03-26T04:18:45;3.70;;;2.50;;
17259;SDS011;8746;49.230;9.220;2023-03-26T04:21:11;3.20;;;2.40;;
17259;SDS011;8746;49.230;9.220;2023-03-26T04:23:39;4.20;;;2.40;;
17259;SDS011;8746;49.230;9.220;2023-03-26T04:26:06;2.90;;;2.33;;
17259;SDS011;8746;49.230;9.220;2023-03-26T04:31:13;3.83;;;2.43;;
17259;SDS011;8746;49.230;9.220;2023-03-26T04:33:42;3.83;;;2.43;;
17259;SDS011;8746;49.230;9.220;2023-03-26T04:36:13;3.13;;;2.07;;
17259;SDS011;8746;49.230;9.220;2023-03-26T04:38:44;3.77;;;2.00;;
17259;SDS011;8746;49.230;9.220;2023-03-26T04:41:13;5.33;;;2.10;;
17259;SDS011;8746;49.230;9.220;2023-03-26T04:43:39;4.33;;;2.00;;
17259;SDS011;8746;49.230;9.220;2023-03-26T04:46:11;3.90;;;2.40;;
17259;SDS011;8746;49.230;9.220;2023-03-26T04:48:48;3.93;;;1.80;;
17259;SDS011;8746;49.230;9.220;2023-03-26T04:51:14;5.27;;;2.10;;
17259;SDS011;8746;49.230;9.220;2023-03-26T04:56:51;4.23;;;2.10;;
17259;SDS011;8746;49.230;9.220;2023-03-26T04:59:25;4.57;;;2.13;;
17259;SDS011;8746;49.230;9.220;2023-03-26T05:01:54;3.23;;;1.90;;
17259;SDS011;8746;49.230;9.220;2023-03-26T05:04:21;3.93;;;1.97;;
17259;SDS011;8746;49.230;9.220;2023-03-26T05:06:47;6.57;;;2.10;;
17259;SDS011;8746;49.230;9.220;2023-03-26T05:09:12;3.07;;;2.00;;
17259;SDS011;8746;49.230;9.220;2023-03-26T05:11:38;3.47;;;1.83;;
17259;SDS011;8746;49.230;9.220;2023-03-26T05:14:03;2.00;;;1.80;;
17259;SDS011;8746;49.230;9.220;2023-03-26T05:16:28;4.93;;;2.20;;
17259;SDS011;8746;49.230;9.220;2023-03-26T05:18:55;4.70;;;1.73;;
17259;SDS011;8746;49.230;9.220;2023-03-26T05:21:21;4.60;;;1.90;;
17259;SDS011;8746;49.230;9.220;2023-03-26T05:23:46;2.43;;;1.90;;
17259;SDS011;8746;49.230;9.220;2023-03-26T05:26:11;2.60;;;2.00;;
17259;SDS011;8746;49.230;9.220;2023-03-26T05:28:37;4.40;;;1.83;;
17259;SDS011;8746;49.230;9.220;2023-03-26T05:31:02;5.40;;;1.90;;
17259;SDS011;8746;49.230;9.220;2023-03-26T05:33:28;3.67;;;2.07;;
17259;SDS011;8746;49.230;9.220;2023-03-26T05:36:03;2.80;;;1.60;;
17259;SDS011;8746;49.230;9.220;2023-03-26T05:38:33;5.40;;;1.93;;
17259;SDS011;8746;49.230;9.220;2023-03-26T05:41:03;2.90;;;2.07;;
17259;SDS011;8746;49.230;9.220;2023-03-26T05:43:30;4.80;;;1.77;;
17259;SDS011;8746;49.230;9.220;2023-03-26T05:45:55;3.83;;;2.23;;
17259;SDS011;8746;49.230;9.220;2023-03-26T05:48:20;6.40;;;1.87;;
17259;SDS011;8746;49.230;9.220;2023-03-26T05:50:50;4.53;;;1.90;;
17259;SDS011;8746;49.230;9.220;2023-03-26T05:53:17;4.07;;;2.20;;
17259;SDS011;8746;49.230;9.220;2023-03-26T05:55:44;5.70;;;2.17;;
17259;SDS011;8746;49.230;9.220;2023-03-26T05:58:25;5.30;;;2.23;;
17259;SDS011;8746;49.230;9.220;2023-03-26T06:00:55;6.80;;;2.60;;
17259;SDS011;8746;49.230;9.220;2023-03-26T06:03:32;5.40;;;2.00;;
17259;SDS011;8746;49.230;9.220;2023-03-26T06:05:59;5.93;;;2.07;;
17259;SDS011;8746;49.230;9.220;2023-03-26T06:08:24;4.00;;;2.20;;
17259;SDS011;8746;49.230;9.220;2023-03-26T06:10:50;3.73;;;1.90;;
17259;SDS011;8746;49.230;9.220;2023-03-26T06:13:22;7.17;;;1.87;;
17259;SDS011;8746;49.230;9.220;2023-03-26T06:15:47;3.00;;;2.27;;
17259;SDS011;8746;49.230;9.220;2023-03-26T06:18:13;3.73;;;2.00;;
17259;SDS011;8746;49.230;9.220;2023-03-26T06:20:39;5.10;;;2.10;;
17259;SDS011;8746;49.230;9.220;2023-03-26T06:23:05;2.50;;;2.10;;
17259;SDS011;8746;49.230;9.220;2023-03-26T06:25:30;2.07;;;1.87;;
17259;SDS011;8746;49.230;9.220;2023-03-26T06:27:56;4.70;;;2.13;;
17259;SDS011;8746;49.230;9.220;2023-03-26T06:30:21;3.10;;;2.10;;
17259;SDS011;8746;49.230;9.220;2023-03-26T06:32:47;3.30;;;2.30;;
17259;SDS011;8746;49.230;9.220;2023-03-26T06:35:12;4.10;;;1.93;;
17259;SDS011;8746;49.230;9.220;2023-03-26T06:37:37;4.00;;;2.20;;
17259;SDS011;8746;49.230;9.220;2023-03-26T06:40:03;8.47;;;2.13;;
17259;SDS011;8746;49.230;9.220;2023-03-26T06:42:29;4.30;;;2.07;;
17259;SDS011;8746;49.230;9.220;2023-03-26T06:44:55;3.90;;;2.30;;
17259;SDS011;8746;49.230;9.220;2023-03-26T06:47:20;5.80;;;2.50;;
17259;SDS011;8746;49.230;9.220;2023-03-26T06:49:45;3.40;;;2.50;;
17259;SDS011;8746;49.230;9.220;2023-03-26T06:52:11;7.17;;;3.07;;
17259;SDS011;8746;49.230;9.220;2023-03-26T06:54:37;3.00;;;2.67;;
17259;SDS011;8746;49.230;9.220;2023-03-26T06:57:02;6.60;;;3.20;;
17259;SDS011;8746;49.230;9.220;2023-03-26T06:59:28;5.77;;;2.60;;
17259;SDS011;8746;49.230;9.220;2023-03-26T07:01:54;5.50;;;2.70;;
17259;SDS011;8746;49.230;9.220;2023-03-26T07:04:19;3.63;;;2.17;;
17259;SDS011;8746;49.230;9.220;2023-03-26T07:06:44;4.13;;;3.00;;
17259;SDS011;8746;49.230;9.220;2023-03-26T07:09:10;5.73;;;2.97;;
17259;SDS011;8746;49.230;9.220;2023-03-26T07:11:35;5.87;;;2.73;;
17259;SDS011;8746;49.230;9.220;2023-03-26T07:14:00;4.60;;;2.77;;
17259;SDS011;8746;49.230;9.220;2023-03-26T07:16:26;4.57;;;2.47;;
17259;SDS011;8746;49.230;9.220;2023-03-26T07:18:51;4.90;;;2.70;;
17259;SDS011;8746;49.230;9.220;2023-03-26T07:21:18;6.13;;;3.10;;
17259;SDS011;8746;49.230;9.220;2023-03-26T07:23:45;4.77;;;2.80;;
17259;SDS011;8746;49.230;9.220;2023-03-26T07:26:14;4.87;;;2.83;;
17259;SDS011;8746;49.230;9.220;2023-03-26T07:28:59;8.03;;;3.00;;
17259;SDS011;8746;49.230;9.220;2023-03-26T07:31:43;4.93;;;2.67;;
17259;SDS011;8746;49.230;9.220;2023-03-26T07:37:11;4.43;;;2.67;;
17259;SDS011;8746;49.230;9.220;2023-03-26T07:45:18;7.47;;;3.37;;
17259;SDS011;8746;49.230;9.220;2023-03-26T07:47:49;6.67;;;2.90;;
17259;SDS011;8746;49.230;9.220;2023-03-26T07:50:19;5.13;;;3.73;;
17259;SDS011;8746;49.230;9.220;2023-03-26T07:52:46;10.03;;;8.03;;
17259;SDS011;8746;49.230;9.220;2023-03-26T07:55:13;6.63;;;5.97;;
17259;SDS011;8746;49.230;9.220;2023-03-26T08:00:34;5.10;;;3.90;;
17259;SDS011;8746;49.230;9.220;2023-03-26T08:03:20;7.50;;;3.40;;
17259;SDS011;8746;49.230;9.220;2023-03-26T08:14:22;4.87;;;2.20;;
17259;SDS011;8746;49.230;9.220;2023-03-26T08:17:15;3.30;;;1.73;;
17259;SDS011;8746;49.230;9.220;2023-03-26T08:19:46;3.43;;;2.10;;
17259;SDS011;8746;49.230;9.220;2023-03-26T08:22:20;3.57;;;2.20;;
17259;SDS011;8746;49.230;9.220;2023-03-26T08:24:57;7.47;;;2.27;;
17259;SDS011;8746;49.230;9.220;2023-03-26T08:27:42;2.67;;;1.93;;
17259;SDS011;8746;49.230;9.220;2023-03-26T08:30:25;6.87;;;2.80;;
17259;SDS011;8746;49.230;9.220;2023-03-26T08:32:58;4.93;;;2.33;;
17259;SDS011;8746;49.230;9.220;2023-03-26T08:35:27;6.07;;;2.20;;
17259;SDS011;8746;49.230;9.220;2023-03-26T08:37:53;4.90;;;2.90;;
17259;SDS011;8746;49.230;9.220;2023-03-26T08:40:25;5.13;;;2.10;;
17259;SDS011;8746;49.230;9.220;2023-03-26T08:43:13;5.63;;;2.20;;
17259;SDS011;8746;49.230;9.220;2023-03-26T08:55:24;3.03;;;1.60;;
17259;SDS011;8746;49.230;9.220;2023-03-26T09:15:44;2.40;;;1.60;;
17259;SDS011;8746;49.230;9.220;2023-03-26T09:29:18;6.10;;;1.70;;
17259;SDS011;8746;49.230;9.220;2023-03-26T09:40:15;4.47;;;1.80;;
17259;SDS011;8746;49.230;9.220;2023-03-26T09:47:55;3.40;;;1.73;;
17259;SDS011;8746;49.230;9.220;2023-03-26T09:56:51;4.00;;;2.00;;
17259;SDS011;8746;49.230;9.220;2023-03-26T10:13:39;16.27;;;9.03;;
17259;SDS011;8746;49.230;9.220;2023-03-26T10:16:14;25.37;;;13.77;;
17259;SDS011;8746;49.230;9.220;2023-03-26T10:21:28;6.77;;;2.80;;
17259;SDS011;8746;49.230;9.220;2023-03-26T10:37:54;3.77;;;1.43;;
17259;SDS011;8746;49.230;9.220;2023-03-26T10:40:40;3.73;;;1.70;;
17259;SDS011;8746;49.230;9.220;2023-03-26T10:46:03;4.67;;;1.60;;
17259;SDS011;8746;49.230;9.220;2023-03-26T10:48:35;4.10;;;2.00;;
17259;SDS011;8746;49.230;9.220;2023-03-26T10:53:59;1.50;;;1.10;;
17259;SDS011;8746;49.230;9.220;2023-03-26T10:56:34;1.03;;;1.00;;
17259;SDS011;8746;49.230;9.220;2023-03-26T10:59:05;2.07;;;1.20;;
17259;SDS011;8746;49.230;9.220;2023-03-26T11:07:27;1.30;;;1.10;;
17259;SDS011;8746;49.230;9.220;2023-03-26T11:10:05;1.30;;;1.10;;
17259;SDS011;8746;49.230;9.220;2023-03-26T11:12:46;3.37;;;1.20;;
17259;SDS011;8746;49.230;9.220;2023-03-26T11:15:30;1.57;;;0.93;;
17259;SDS011;8746;49.230;9.220;2023-03-26T11:18:15;3.03;;;1.13;;
17259;SDS011;8746;49.230;9.220;2023-03-26T11:20:49;3.07;;;1.40;;
17259;SDS011;8746;49.230;9.220;2023-03-26T11:31:44;1.47;;;1.37;;
17259;SDS011;8746;49.230;9.220;2023-03-26T11:34:26;2.87;;;1.50;;
17259;SDS011;8746;49.230;9.220;2023-03-26T11:36:55;4.30;;;1.77;;
17259;SDS011;8746;49.230;9.220;2023-03-26T11:39:24;3.33;;;1.40;;
17259;SDS011;8746;49.230;9.220;2023-03-26T11:44:54;2.60;;;1.60;;
17259;SDS011;8746;49.230;9.220;2023-03-26T11:47:29;1.97;;;1.47;;
17259;SDS011;8746;49.230;9.220;2023-03-26T11:49:59;2.93;;;1.40;;
17259;SDS011;8746;49.230;9.220;2023-03-26T11:52:27;4.33;;;1.50;;
17259;SDS011;8746;49.230;9.220;2023-03-26T11:54:53;3.80;;;1.30;;
17259;SDS011;8746;49.230;9.220;2023-03-26T11:57:24;2.03;;;1.00;;
17259;SDS011;8746;49.230;9.220;2023-03-26T11:59:58;1.10;;;0.90;;
17259;SDS011;8746;49.230;9.220;2023-03-26T12:02:38;1.83;;;0.90;;
17259;SDS011;8746;49.230;9.220;2023-03-26T12:05:16;1.80;;;1.10;;
17259;SDS011;8746;49.230;9.220;2023-03-26T12:08:01;2.03;;;0.80;;
17259;SDS011;8746;49.230;9.220;2023-03-26T12:10:35;2.80;;;1.10;;
17259;SDS011;8746;49.230;9.220;2023-03-26T12:13:15;3.83;;;2.20;;
17259;SDS011;8746;49.230;9.220;2023-03-26T12:16:09;1.83;;;1.50;;
17259;SDS011;8746;49.230;9.220;2023-03-26T12:18:43;2.03;;;0.97;;
17259;SDS011;8746;49.230;9.220;2023-03-26T12:21:13;0.70;;;0.70;;
17259;SDS011;8746;49.230;9.220;2023-03-26T12:26:27;0.97;;;0.73;;
17259;SDS011;8746;49.230;9.220;2023-03-26T12:28:54;1.47;;;0.70;;
17259;SDS011;8746;49.230;9.220;2023-03-26T12:31:20;0.50;;;0.50;;
17259;SDS011;8746;49.230;9.220;2023-03-26T12:34:32;1.20;;;0.60;;
17259;SDS011;8746;49.230;9.220;2023-03-26T12:36:38;1.10;;;0.70;;
17259;SDS011;8746;49.230;9.220;2023-03-26T12:39:20;1.63;;;0.80;;
17259;SDS011;8746;49.230;9.220;2023-03-26T12:41:55;1.13;;;0.60;;
17259;SDS011;8746;49.230;9.220;2023-03-26T12:47:09;1.67;;;0.80;;
17259;SDS011;8746;49.230;9.220;2023-03-26T12:49:39;0.77;;;0.60;;
17259;SDS011;8746;49.230;9.220;2023-03-26T12:52:13;1.27;;;0.60;;
17259;SDS011;8746;49.230;9.220;2023-03-26T12:57:24;1.23;;;0.70;;
17259;SDS011;8746;49.230;9.220;2023-03-26T13:02:53;2.67;;;0.70;;
17259;SDS011;8746;49.230;9.220;2023-03-26T13:08:55;1.57;;;0.80;;
17259;SDS011;8746;49.230;9.220;2023-03-26T13:11:45;1.57;;;0.80;;
17259;SDS011;8746;49.230;9.220;2023-03-26T13:14:17;1.20;;;0.70;;
17259;SDS011;8746;49.230;9.220;2023-03-26T13:17:02;1.07;;;0.70;;
17259;SDS011;8746;49.230;9.220;2023-03-26T13:25:06;3.27;;;0.93;;
17259;SDS011;8746;49.230;9.220;2023-03-26T13:30:31;1.67;;;0.80;;
17259;SDS011;8746;49.230;9.220;2023-03-26T13:38:44;4.53;;;0.90;;
17259;SDS011;8746;49.230;9.220;2023-03-26T13:49:02;2.03;;;1.17;;
17259;SDS011;8746;49.230;9.220;2023-03-26T13:51:42;2.60;;;0.80;;
17259;SDS011;8746;49.230;9.220;2023-03-26T13:57:42;2.57;;;1.30;;
17259;SDS011;8746;49.230;9.220;2023-03-26T13:59:50;2.30;;;0.80;;
17259;SDS011;8746;49.230;9.220;2023-03-26T14:02:26;2.10;;;0.90;;
17259;SDS011;8746;49.230;9.220;2023-03-26T14:05:17;1.17;;;0.90;;
17259;SDS011;8746;49.230;9.220;2023-03-26T14:07:48;2.37;;;0.60;;
17259;SDS011;8746;49.230;9.220;2023-03-26T14:10:27;4.30;;;1.20;;
17259;SDS011;8746;49.230;9.220;2023-03-26T14:18:12;2.00;;;0.90;;
17259;SDS011;8746;49.230;9.220;2023-03-26T14:34:48;1.47;;;0.80;;
17259;SDS011;8746;49.230;9.220;2023-03-26T14:40:29;2.57;;;1.13;;
17259;SDS011;8746;49.230;9.220;2023-03-26T14:43:22;1.17;;;0.87;;
17259;SDS011;8746;49.230;9.220;2023-03-26T14:46:13;2.67;;;1.10;;
17259;SDS011;8746;49.230;9.220;2023-03-26T14:54:25;2.43;;;1.10;;
17259;SDS011;8746;49.230;9.220;2023-03-26T15:11:16;1.83;;;0.83;;
17259;SDS011;8746;49.230;9.220;2023-03-26T15:19:54;1.80;;;0.80;;
17259;SDS011;8746;49.230;9.220;2023-03-26T15:42:59;2.27;;;1.00;;
17259;SDS011;8746;49.230;9.220;2023-03-26T15:45:30;3.67;;;1.00;;
17259;SDS011;8746;49.230;9.220;2023-03-26T16:14:44;1.23;;;0.70;;
17259;SDS011;8746;49.230;9.220;2023-03-26T16:20:46;0.70;;;0.70;;
17259;SDS011;8746;49.230;9.220;2023-03-26T16:23:19;1.03;;;0.90;;
17259;SDS011;8746;49.230;9.220;2023-03-26T16:28:35;0.83;;;0.57;;
17259;SDS011;8746;49.230;9.220;2023-03-26T16:31:22;2.00;;;0.73;;
17259;SDS011;8746;49.230;9.220;2023-03-26T16:36:33;0.60;;;0.60;;
17259;SDS011;8746;49.230;9.220;2023-03-26T16:41:32;0.70;;;0.70;;
17259;SDS011;8746;49.230;9.220;2023-03-26T16:50:01;0.70;;;0.70;;
17259;SDS011;8746;49.230;9.220;2023-03-26T16:55:19;1.23;;;0.67;;
17259;SDS011;8746;49.230;9.220;2023-03-26T16:57:54;0.87;;;0.70;;
17259;SDS011;8746;49.230;9.220;2023-03-26T17:00:29;0.63;;;0.60;;
17259;SDS011;8746;49.230;9.220;2023-03-26T17:03:11;1.23;;;0.67;;
17259;SDS011;8746;49.230;9.220;2023-03-26T17:22:42;1.37;;;0.80;;
17259;SDS011;8746;49.230;9.220;2023-03-26T17:27:58;1.57;;;0.80;;
17259;SDS011;8746;49.230;9.220;2023-03-26T17:30:50;0.80;;;0.80;;
17259;SDS011;8746;49.230;9.220;2023-03-26T17:41:03;1.10;;;1.00;;
17259;SDS011;8746;49.230;9.220;2023-03-26T17:49:11;1.13;;;0.90;;
17259;SDS011;8746;49.230;9.220;2023-03-26T17:51:51;1.90;;;0.97;;
17259;SDS011;8746;49.230;9.220;2023-03-26T17:54:31;1.00;;;0.90;;
17259;SDS011;8746;49.230;9.220;2023-03-26T17:57:01;0.93;;;0.80;;
17259;SDS011;8746;49.230;9.220;2023-03-26T17:59:30;0.70;;;0.70;;
17259;SDS011;8746;49.230;9.220;2023-03-26T18:01:58;1.83;;;1.00;;
17259;SDS011;8746;49.230;9.220;2023-03-26T18:04:31;1.03;;;0.90;;
17259;SDS011;8746;49.230;9.220;2023-03-26T18:07:10;0.70;;;0.70;;
17259;SDS011;8746;49.230;9.220;2023-03-26T18:09:51;1.00;;;0.90;;
17259;SDS011;8746;49.230;9.220;2023-03-26T18:12:35;1.47;;;0.90;;
17259;SDS011;8746;49.230;9.220;2023-03-26T18:21:00;1.17;;;0.80;;
17259;SDS011;8746;49.230;9.220;2023-03-26T18:23:35;1.00;;;0.70;;
17259;SDS011;8746;49.230;9.220;2023-03-26T18:26:10;1.00;;;0.90;;
17259;SDS011;8746;49.230;9.220;2023-03-26T18:28:39;1.40;;;1.10;;
17259;SDS011;8746;49.230;9.220;2023-03-26T18:31:23;0.90;;;0.90;;
17259;SDS011;8746;49.230;9.220;2023-03-26T18:33:53;1.80;;;0.80;;
17259;SDS011;8746;49.230;9.220;2023-03-26T18:36:20;0.87;;;0.87;;
17259;SDS011;8746;49.230;9.220;2023-03-26T18:38:50;1.57;;;1.10;;
17259;SDS011;8746;49.230;9.220;2023-03-26T18:41:26;0.93;;;0.80;;
17259;SDS011;8746;49.230;9.220;2023-03-26T18:43:55;0.87;;;0.70;;
17259;SDS011;8746;49.230;9.220;2023-03-26T18:46:25;1.57;;;0.80;;
17259;SDS011;8746;49.230;9.220;2023-03-26T18:48:51;1.60;;;0.60;;
17259;SDS011;8746;49.230;9.220;2023-03-26T18:51:19;1.50;;;0.90;;
17259;SDS011;8746;49.230;9.220;2023-03-26T18:53:51;1.33;;;1.23;;
17259;SDS011;8746;49.230;9.220;2023-03-26T18:56:26;1.57;;;1.10;;
17259;SDS011;8746;49.230;9.220;2023-03-26T18:58:54;2.70;;;1.70;;
17259;SDS011;8746;49.230;9.220;2023-03-26T19:01:22;1.37;;;1.10;;
17259;SDS011;8746;49.230;9.220;2023-03-26T19:03:54;0.97;;;0.83;;
17259;SDS011;8746;49.230;9.220;2023-03-26T19:06:27;0.90;;;0.90;;
17259;SDS011;8746;49.230;9.220;2023-03-26T19:08:53;1.93;;;1.20;;
17259;SDS011;8746;49.230;9.220;2023-03-26T19:11:21;0.80;;;0.80;;
17259;SDS011;8746;49.230;9.220;2023-03-26T19:13:57;1.10;;;1.10;;
17259;SDS011;8746;49.230;9.220;2023-03-26T19:16:27;1.00;;;1.00;;
17259;SDS011;8746;49.230;9.220;2023-03-26T19:18:58;0.70;;;0.70;;
17259;SDS011;8746;49.230;9.220;2023-03-26T19:21:26;2.10;;;0.90;;
17259;SDS011;8746;49.230;9.220;2023-03-26T19:23:52;0.93;;;0.80;;
17259;SDS011;8746;49.230;9.220;2023-03-26T19:26:19;1.40;;;1.00;;
17259;SDS011;8746;49.230;9.220;2023-03-26T19:28:48;1.00;;;1.00;;
17259;SDS011;8746;49.230;9.220;2023-03-26T19:31:25;0.90;;;0.90;;
17259;SDS011;8746;49.230;9.220;2023-03-26T19:33:57;0.90;;;0.90;;
17259;SDS011;8746;49.230;9.220;2023-03-26T19:36:25;0.73;;;0.73;;
17259;SDS011;8746;49.230;9.220;2023-03-26T19:38:56;0.90;;;0.90;;
17259;SDS011;8746;49.230;9.220;2023-03-26T19:41:33;0.87;;;0.80;;
17259;SDS011;8746;49.230;9.220;2023-03-26T19:44:01;0.50;;;0.50;;
17259;SDS011;8746;49.230;9.220;2023-03-26T19:46:31;1.00;;;0.73;;
17259;SDS011;8746;49.230;9.220;2023-03-26T19:48:58;2.53;;;0.90;;
17259;SDS011;8746;49.230;9.220;2023-03-26T19:51:33;1.30;;;1.20;;
17259;SDS011;8746;49.230;9.220;2023-03-26T19:54:02;0.80;;;0.80;;
17259;SDS011;8746;49.230;9.220;2023-03-26T19:56:35;2.23;;;1.50;;
17259;SDS011;8746;49.230;9.220;2023-03-26T19:59:00;2.57;;;2.00;;
17259;SDS011;8746;49.230;9.220;2023-03-26T20:01:27;2.53;;;1.50;;
17259;SDS011;8746;49.230;9.220;2023-03-26T20:03:55;2.30;;;2.10;;
17259;SDS011;8746;49.230;9.220;2023-03-26T20:06:24;1.70;;;1.60;;
17259;SDS011;8746;49.230;9.220;2023-03-26T20:08:53;1.20;;;1.10;;
17259;SDS011;8746;49.230;9.220;2023-03-26T20:11:19;1.83;;;1.17;;
17259;SDS011;8746;49.230;9.220;2023-03-26T20:13:47;2.00;;;1.20;;
17259;SDS011;8746;49.230;9.220;2023-03-26T20:16:29;1.33;;;0.67;;
17259;SDS011;8746;49.230;9.220;2023-03-26T20:18:56;0.60;;;0.60;;
17259;SDS011;8746;49.230;9.220;2023-03-26T20:21:26;0.87;;;0.80;;
17259;SDS011;8746;49.230;9.220;2023-03-26T20:23:52;0.60;;;0.60;;
17259;SDS011;8746;49.230;9.220;2023-03-26T20:26:17;0.50;;;0.50;;
17259;SDS011;8746;49.230;9.220;2023-03-26T20:28:43;3.77;;;2.13;;
17259;SDS011;8746;49.230;9.220;2023-03-26T20:31:13;2.10;;;1.90;;
17259;SDS011;8746;49.230;9.220;2023-03-26T20:33:41;1.20;;;1.17;;
17259;SDS011;8746;49.230;9.220;2023-03-26T20:36:08;0.77;;;0.73;;
17259;SDS011;8746;49.230;9.220;2023-03-26T20:38:35;2.10;;;1.37;;
17259;SDS011;8746;49.230;9.220;2023-03-26T20:41:01;1.67;;;1.50;;
17259;SDS011;8746;49.230;9.220;2023-03-26T20:43:26;1.00;;;1.00;;
17259;SDS011;8746;49.230;9.220;2023-03-26T20:45:54;1.00;;;0.90;;
17259;SDS011;8746;49.230;9.220;2023-03-26T20:48:21;1.53;;;1.43;;
17259;SDS011;8746;49.230;9.220;2023-03-26T20:50:47;1.23;;;1.20;;
17259;SDS011;8746;49.230;9.220;2023-03-26T20:53:12;1.50;;;1.40;;
17259;SDS011;8746;49.230;9.220;2023-03-26T20:55:41;3.13;;;1.57;;
17259;SDS011;8746;49.230;9.220;2023-03-26T20:58:17;1.40;;;1.30;;
17259;SDS011;8746;49.230;9.220;2023-03-26T21:00:46;2.10;;;1.20;;
17259;SDS011;8746;49.230;9.220;2023-03-26T21:03:13;2.00;;;1.30;;
17259;SDS011;8746;49.230;9.220;2023-03-26T21:05:40;1.73;;;1.30;;
17259;SDS011;8746;49.230;9.220;2023-03-26T21:08:08;2.10;;;1.70;;
17259;SDS011;8746;49.230;9.220;2023-03-26T21:10:39;2.60;;;1.57;;
17259;SDS011;8746;49.230;9.220;2023-03-26T21:15:52;1.40;;;1.30;;
17259;SDS011;8746;49.230;9.220;2023-03-26T21:18:17;1.30;;;1.20;;